This is the latest recevied weather packets stored in our database for station/object WA0LM. If no packets are shown the sender has not sent any weather packets the latest 10 day(s).
| Time | Temp. | Humidity | Pressure | Rain* | Wind** | Luminosity | Snow |
|---|---|---|---|---|---|---|---|
| 1777862444 | 15.56° C | 42% | 1000.3 hPa | 0 mm | - | 0 W/m² | - |
| 1777862140 | 15.56° C | 41% | 1000.5 hPa | 0 mm | - | 0 W/m² | - |
| 1777861836 | 15.56° C | 41% | 1000.5 hPa | 0 mm | - | 0 W/m² | - |
| 1777861532 | 15.56° C | 40% | 1000.6 hPa | 0 mm | - | 0 W/m² | - |
| 1777861229 | 15.56° C | 40% | 1000.7 hPa | 0 mm | - | 0 W/m² | - |
| 1777860926 | 15.56° C | 39% | 1000.8 hPa | 0 mm | - | 0 W/m² | - |
| 1777860623 | 16.11° C | 39% | 1000.9 hPa | 0 mm | - | 0 W/m² | - |
| 1777860320 | 16.11° C | 39% | 1000.7 hPa | 0 mm | - | 0 W/m² | - |
| 1777860017 | 16.11° C | 39% | 1001 hPa | 0 mm | - | 0 W/m² | - |
| 1777859713 | 16.67° C | 39% | 1001.1 hPa | 0 mm | - | 0 W/m² | - |
| 1777859409 | 16.67° C | 38% | 1001 hPa | 0 mm | - | 0 W/m² | - |
| 1777859105 | 16.67° C | 39% | 1001.2 hPa | 0 mm | - | 0 W/m² | - |
| 1777858802 | 16.67° C | 38% | 1001.1 hPa | 0 mm | - | 1 W/m² | - |
| 1777858500 | 17.22° C | 40% | 1001.3 hPa | 0 mm | - | 1 W/m² | - |
| 1777858196 | 17.22° C | 39% | 1001.3 hPa | 0 mm | - | 2 W/m² | - |
| 1777857894 | 17.22° C | 42% | 1001.6 hPa | 0 mm | - | 3 W/m² | - |
| 1777857592 | 17.22° C | 38% | 1001.5 hPa | 0 mm | - | 5 W/m² | - |
| 1777857288 | 17.22° C | 41% | 1001.6 hPa | 0 mm | - | 8 W/m² | - |
| 1777856984 | 17.78° C | 42% | 1001.6 hPa | 0 mm | - | 11 W/m² | - |
| 1777856680 | 17.78° C | 43% | 1001.7 hPa | 0 mm | - | 15 W/m² | - |
| 1777856376 | 18.33° C | 38% | 1001.8 hPa | 0 mm | - | 20 W/m² | - |
| 1777856073 | 18.33° C | 40% | 1001.9 hPa | 0 mm | - | 28 W/m² | - |
| 1777855771 | 18.33° C | 40% | 1001.7 hPa | 0 mm | - | 31 W/m² | - |
| 1777855468 | 18.33° C | 43% | 1001.9 hPa | 0 mm | - | 33 W/m² | - |
| 1777855165 | 18.33° C | 37% | 1001.7 hPa | 0 mm | - | 34 W/m² | - |
* Rain latest hour (hover to see other rain measurements)
** Current wind speed in m/s (hover to see current wind gust speed)